Willmar, Minnesota
Current Conditions -  °F | °C
As of 12:15 PM on Monday 22 Dec 2014 (Local Time) from KBDH Reporting Station
Light Rain Light Rain  
Wind Chill: 28°   Ceiling: 400
Heat Index: 37°   Visibility: 3mi
Dew Point: 36°   Wind: 16mph
Humidity: 93%   Direction: 130°SE
Pressure: 29.52"   Gusts: 21mph
Location:  45.12°N, 95.05°W
Report Text: KBDH 221815Z AUTO 13014G18KT 3SM -RA OVC004 03/02 A2952 RMK AO2
Loading
Personal Weather Stations






























Interactive Weather Map New forecast layout! Learn more

10-Day Weather Forecast

Advertisements
Track Severe Weather on mobile